createdAt,value
2018-09-15T00:00:31.478Z,17.17
2018-09-15T00:01:06.662Z,17.24
2018-09-15T00:01:41.937Z,17.25
2018-09-15T00:02:17.271Z,17.20
2018-09-15T00:02:53.952Z,17.24
2018-09-15T00:03:29.132Z,17.21
2018-09-15T00:04:04.678Z,17.14
2018-09-15T00:04:39.856Z,17.12
2018-09-15T00:05:15.527Z,17.07
2018-09-15T00:05:51.061Z,17.09
2018-09-15T00:06:26.309Z,17.05
2018-09-15T00:07:01.508Z,17.01
2018-09-15T00:07:36.785Z,17.01
2018-09-15T00:08:12.718Z,16.95
2018-09-15T00:08:47.976Z,17.01
2018-09-15T00:09:23.388Z,16.97
2018-09-15T00:09:58.592Z,17.00
2018-09-15T00:10:33.781Z,17.01
2018-09-15T00:11:09.163Z,17.08
2018-09-15T00:11:44.474Z,17.01
2018-09-15T00:12:19.879Z,16.98
2018-09-15T00:12:55.091Z,16.96
2018-09-15T00:13:30.652Z,16.93
2018-09-15T00:14:05.807Z,16.92
2018-09-15T00:14:41.043Z,16.89
2018-09-15T00:15:16.633Z,16.94
2018-09-15T00:15:52.026Z,16.86
2018-09-15T00:16:27.191Z,16.87
2018-09-15T00:17:02.496Z,16.87
2018-09-15T00:17:38.449Z,16.86
2018-09-15T00:18:15.951Z,16.89
2018-09-15T00:18:51.406Z,16.84
2018-09-15T00:19:26.618Z,16.89
2018-09-15T00:20:01.824Z,16.86
2018-09-15T00:20:37.070Z,16.89
2018-09-15T00:21:12.443Z,16.90
2018-09-15T00:21:47.784Z,16.83
2018-09-15T00:22:23.032Z,16.80
2018-09-15T00:22:58.235Z,16.80
2018-09-15T00:23:33.403Z,16.78
2018-09-15T00:24:08.845Z,16.77
2018-09-15T00:24:44.393Z,16.75
2018-09-15T00:25:19.738Z,16.73
2018-09-15T00:25:54.905Z,16.76
2018-09-15T00:26:29.621Z,16.75
2018-09-15T00:27:04.823Z,16.73
2018-09-15T00:27:40.064Z,16.71
2018-09-15T00:28:15.675Z,16.71
2018-09-15T00:28:50.926Z,16.70
2018-09-15T00:29:26.160Z,16.68
2018-09-15T00:30:01.343Z,16.66
2018-09-15T00:30:36.529Z,16.62
2018-09-15T00:31:12.135Z,16.64
2018-09-15T00:31:47.870Z,16.63
2018-09-15T00:32:23.111Z,16.62
2018-09-15T00:32:58.485Z,16.61
2018-09-15T00:33:33.675Z,16.60
2018-09-15T00:34:08.954Z,16.61
2018-09-15T00:34:44.416Z,16.59
2018-09-15T00:35:19.899Z,16.61
2018-09-15T00:35:55.142Z,16.63
2018-09-15T00:36:29.861Z,16.65
2018-09-15T00:37:05.043Z,16.66
2018-09-15T00:37:40.234Z,16.68
2018-09-15T00:38:15.660Z,16.68
2018-09-15T00:38:51.069Z,16.66
2018-09-15T00:39:26.379Z,16.67
2018-09-15T00:40:01.603Z,16.66
2018-09-15T00:40:36.775Z,16.63
2018-09-15T00:41:12.404Z,16.62
2018-09-15T00:41:47.999Z,16.62
2018-09-15T00:42:23.459Z,16.60
2018-09-15T00:42:58.879Z,16.55
2018-09-15T00:43:34.138Z,16.53
2018-09-15T00:44:09.470Z,16.52
2018-09-15T00:44:44.897Z,16.51
2018-09-15T00:45:20.367Z,16.52
2018-09-15T00:45:55.554Z,16.51
2018-09-15T00:46:30.267Z,16.54
2018-09-15T00:47:05.495Z,16.53
2018-09-15T00:47:40.694Z,16.52
2018-09-15T00:48:16.131Z,16.53
2018-09-15T00:48:51.434Z,16.49
2018-09-15T00:49:26.654Z,16.50
2018-09-15T00:50:01.830Z,16.52
2018-09-15T00:50:37.034Z,16.52
2018-09-15T00:51:12.706Z,16.52
2018-09-15T00:51:48.059Z,16.51
2018-09-15T00:52:23.300Z,16.48
2018-09-15T00:52:58.573Z,16.50
2018-09-15T00:53:33.736Z,16.48
2018-09-15T00:54:08.895Z,16.50
2018-09-15T00:54:44.432Z,16.51
2018-09-15T00:55:20.044Z,16.51
2018-09-15T00:55:55.262Z,16.50
2018-09-15T00:56:30.418Z,16.51
2018-09-15T00:57:06.079Z,16.50
2018-09-15T00:57:41.459Z,16.49
2018-09-15T00:58:16.735Z,16.48
2018-09-15T00:58:51.985Z,16.48
2018-09-15T00:59:27.173Z,16.45
2018-09-15T01:00:02.383Z,16.42
2018-09-15T01:00:37.582Z,16.44
2018-09-15T01:01:12.917Z,16.42
2018-09-15T01:01:48.194Z,16.41
2018-09-15T01:02:23.489Z,16.43
2018-09-15T01:02:58.670Z,16.38
2018-09-15T01:03:33.839Z,16.38
2018-09-15T01:04:09.015Z,16.38
2018-09-15T01:04:44.299Z,16.37
2018-09-15T01:05:19.957Z,16.37
2018-09-15T01:05:55.179Z,16.38
2018-09-15T01:06:30.397Z,16.34
2018-09-15T01:07:05.602Z,16.33
2018-09-15T01:07:40.814Z,16.31
2018-09-15T01:08:16.481Z,16.32
2018-09-15T01:08:51.708Z,16.28
2018-09-15T01:09:26.885Z,16.33
2018-09-15T01:10:02.211Z,16.34
2018-09-15T01:10:37.480Z,16.32
2018-09-15T01:11:12.791Z,16.33
2018-09-15T01:11:48.310Z,16.34
2018-09-15T01:12:23.573Z,16.38
2018-09-15T01:12:58.785Z,16.38
2018-09-15T01:13:34.113Z,16.32
2018-09-15T01:14:09.356Z,16.30
2018-09-15T01:14:44.997Z,16.30
2018-09-15T01:15:20.380Z,16.29
2018-09-15T01:15:55.609Z,16.28
2018-09-15T01:16:30.791Z,16.26
2018-09-15T01:17:06.107Z,16.24
2018-09-15T01:17:41.330Z,16.23
2018-09-15T01:18:16.649Z,16.19
2018-09-15T01:18:51.868Z,16.13
2018-09-15T01:19:27.087Z,16.09
2018-09-15T01:20:02.306Z,16.10
2018-09-15T01:20:38.051Z,16.08
2018-09-15T01:21:13.774Z,16.04
2018-09-15T01:21:49.303Z,16.04
2018-09-15T01:22:24.733Z,16.08
2018-09-15T01:22:59.945Z,16.06
2018-09-15T01:23:35.114Z,16.12
2018-09-15T01:24:10.752Z,16.11
2018-09-15T01:24:46.348Z,16.11
2018-09-15T01:25:22.224Z,16.09
2018-09-15T01:25:57.436Z,16.07
2018-09-15T01:26:32.772Z,16.02
2018-09-15T01:27:08.386Z,16.02
2018-09-15T01:27:43.681Z,16.01
2018-09-15T01:28:19.149Z,16.01
2018-09-15T01:28:54.317Z,15.96
2018-09-15T01:29:29.645Z,15.96
2018-09-15T01:30:04.905Z,15.89
2018-09-15T01:30:40.071Z,15.85
2018-09-15T01:31:15.330Z,15.86
2018-09-15T01:31:50.577Z,15.86
2018-09-15T01:32:27.485Z,15.84
2018-09-15T01:33:02.630Z,15.84
2018-09-15T01:33:37.799Z,15.84
2018-09-15T01:34:13.386Z,15.81
2018-09-15T01:34:48.948Z,15.78
2018-09-15T01:35:24.308Z,15.74
2018-09-15T01:35:59.482Z,15.71
2018-09-15T01:36:34.725Z,15.71
2018-09-15T01:37:09.977Z,15.68
2018-09-15T01:37:45.349Z,15.65
2018-09-15T01:38:20.804Z,15.66
2018-09-15T01:38:56.014Z,15.64
2018-09-15T01:39:31.186Z,15.61
2018-09-15T01:40:06.366Z,15.57
2018-09-15T01:40:41.900Z,15.57
2018-09-15T01:41:17.247Z,15.57
2018-09-15T01:41:52.500Z,15.56
2018-09-15T01:42:27.689Z,15.59
2018-09-15T01:43:02.889Z,15.58
2018-09-15T01:43:38.055Z,15.60
2018-09-15T01:44:13.825Z,15.57
2018-09-15T01:44:49.347Z,15.55
2018-09-15T01:45:24.664Z,15.52
2018-09-15T01:45:59.838Z,15.52
2018-09-15T01:46:35.069Z,15.46
2018-09-15T01:47:10.284Z,15.46
2018-09-15T01:47:45.592Z,15.43
2018-09-15T01:48:20.850Z,15.43
2018-09-15T01:48:56.111Z,15.43
2018-09-15T01:49:31.506Z,15.44
2018-09-15T01:50:06.734Z,15.43
2018-09-15T01:50:41.451Z,15.39
2018-09-15T01:51:16.772Z,15.41
2018-09-15T01:51:52.095Z,15.45
2018-09-15T01:52:27.405Z,15.47
2018-09-15T01:53:02.959Z,15.46
2018-09-15T01:53:38.114Z,15.46
2018-09-15T01:54:13.314Z,15.46
2018-09-15T01:54:48.932Z,15.46
2018-09-15T01:55:24.641Z,15.47
2018-09-15T01:55:59.856Z,15.46
2018-09-15T01:56:35.067Z,15.45
2018-09-15T01:57:10.262Z,15.43
2018-09-15T01:57:45.443Z,15.42
2018-09-15T01:58:21.203Z,15.39
2018-09-15T01:58:56.815Z,15.44
2018-09-15T01:59:32.123Z,15.44
2018-09-15T02:00:07.376Z,15.40
2018-09-15T02:00:42.741Z,15.42
2018-09-15T02:01:17.966Z,15.38
2018-09-15T02:01:53.408Z,15.37
2018-09-15T02:02:28.682Z,15.41
2018-09-15T02:03:04.502Z,15.41
2018-09-15T02:03:39.325Z,15.41
2018-09-15T02:04:14.511Z,15.39
2018-09-15T02:04:49.903Z,15.37
2018-09-15T02:05:25.178Z,15.35
2018-09-15T02:06:00.715Z,15.28
2018-09-15T02:06:35.883Z,15.29
2018-09-15T02:07:11.110Z,15.27
2018-09-15T02:07:46.415Z,15.24
2018-09-15T02:08:22.005Z,15.25
2018-09-15T02:08:57.367Z,15.27
2018-09-15T02:09:32.635Z,15.22
2018-09-15T02:10:08.169Z,15.23
2018-09-15T02:10:43.360Z,15.23
2018-09-15T02:11:18.782Z,15.22
2018-09-15T02:11:54.064Z,15.19
2018-09-15T02:12:29.683Z,15.16
2018-09-15T02:13:04.864Z,15.17
2018-09-15T02:13:40.066Z,15.16
2018-09-15T02:14:15.238Z,15.16
2018-09-15T02:14:50.964Z,15.12
2018-09-15T02:15:26.271Z,15.13
2018-09-15T02:16:01.498Z,15.08
2018-09-15T02:16:37.062Z,15.07
2018-09-15T02:17:12.244Z,15.06
2018-09-15T02:17:47.463Z,15.12
2018-09-15T02:18:22.934Z,15.09
2018-09-15T02:18:58.338Z,15.06
2018-09-15T02:19:33.509Z,15.04
2018-09-15T02:20:08.643Z,15.02
2018-09-15T02:20:43.835Z,15.09
2018-09-15T02:21:19.294Z,15.11
2018-09-15T02:21:54.622Z,15.10
2018-09-15T02:22:30.221Z,15.13
2018-09-15T02:23:05.717Z,15.12
2018-09-15T02:23:41.109Z,15.15
2018-09-15T02:24:16.285Z,15.14
2018-09-15T02:24:51.770Z,15.21
2018-09-15T02:25:27.301Z,15.19
2018-09-15T02:26:02.503Z,15.17
2018-09-15T02:26:37.698Z,15.15
2018-09-15T02:27:12.861Z,15.16
2018-09-15T02:27:48.214Z,15.16
2018-09-15T02:28:23.648Z,15.20
2018-09-15T02:28:58.969Z,15.20
2018-09-15T02:29:34.308Z,15.23
2018-09-15T02:30:09.522Z,15.23
2018-09-15T02:30:44.698Z,15.27
2018-09-15T02:31:20.305Z,15.30
2018-09-15T02:31:55.758Z,15.33
2018-09-15T02:32:31.115Z,15.30
2018-09-15T02:33:06.358Z,15.31
2018-09-15T02:33:41.672Z,15.26
2018-09-15T02:34:17.278Z,15.25
2018-09-15T02:34:52.707Z,15.22
2018-09-15T02:35:28.146Z,15.23
2018-09-15T02:36:03.595Z,15.25
2018-09-15T02:36:38.876Z,15.26
2018-09-15T02:37:14.402Z,15.19
2018-09-15T02:37:49.823Z,15.32
2018-09-15T02:38:25.187Z,15.35
2018-09-15T02:39:00.498Z,15.31
2018-09-15T02:39:35.691Z,15.27
2018-09-15T02:40:10.899Z,15.22
2018-09-15T02:40:46.181Z,15.20
2018-09-15T02:41:21.590Z,15.16
2018-09-15T02:41:57.096Z,15.16
2018-09-15T02:42:32.489Z,15.21
2018-09-15T02:43:07.658Z,15.19
2018-09-15T02:43:42.879Z,15.18
2018-09-15T02:44:18.746Z,15.14
2018-09-15T02:44:54.165Z,15.19
2018-09-15T02:45:29.418Z,15.19
2018-09-15T02:46:04.633Z,15.15
2018-09-15T02:46:40.204Z,15.10
2018-09-15T02:47:15.401Z,15.05
2018-09-15T02:47:50.756Z,15.00
2018-09-15T02:48:26.112Z,15.00
2018-09-15T02:49:01.311Z,15.02
2018-09-15T02:49:36.531Z,15.02
2018-09-15T02:50:11.731Z,15.04
2018-09-15T02:50:46.961Z,15.02
2018-09-15T02:51:22.214Z,14.95
2018-09-15T02:51:57.439Z,14.99
2018-09-15T02:52:32.616Z,14.97
2018-09-15T02:53:07.834Z,14.92
2018-09-15T02:53:43.532Z,14.90
2018-09-15T02:54:18.781Z,14.87
2018-09-15T02:54:54.131Z,14.85
2018-09-15T02:55:29.787Z,14.87
2018-09-15T02:56:05.358Z,14.85
2018-09-15T02:56:40.560Z,14.82
2018-09-15T02:57:15.795Z,14.80
2018-09-15T02:57:51.347Z,14.78
2018-09-15T02:58:26.769Z,14.78
2018-09-15T02:59:01.997Z,14.72
2018-09-15T02:59:37.190Z,14.73
2018-09-15T03:00:12.423Z,14.73
2018-09-15T03:00:47.747Z,14.74
2018-09-15T03:01:23.132Z,14.74
2018-09-15T03:01:58.555Z,14.73
2018-09-15T03:02:34.279Z,14.71
2018-09-15T03:03:10.346Z,14.74
2018-09-15T03:03:45.805Z,14.80
2018-09-15T03:04:21.330Z,14.86
2018-09-15T03:04:57.014Z,14.78
2018-09-15T03:05:32.209Z,14.71
2018-09-15T03:06:07.394Z,14.72
2018-09-15T03:06:42.595Z,14.69
2018-09-15T03:07:17.811Z,14.70
2018-09-15T03:07:53.366Z,14.66
2018-09-15T03:08:28.640Z,14.68
2018-09-15T03:09:04.208Z,14.65
2018-09-15T03:09:39.391Z,14.67
2018-09-15T03:10:14.557Z,14.64
2018-09-15T03:10:50.065Z,14.62
2018-09-15T03:11:25.594Z,14.65
2018-09-15T03:12:00.980Z,14.68
2018-09-15T03:12:36.183Z,14.70
2018-09-15T03:13:11.399Z,14.69
2018-09-15T03:13:46.578Z,14.69
2018-09-15T03:14:21.932Z,14.70
2018-09-15T03:14:57.257Z,14.73
2018-09-15T03:15:32.452Z,14.68
2018-09-15T03:16:07.647Z,14.68
2018-09-15T03:16:42.864Z,14.66
2018-09-15T03:17:18.612Z,14.66
2018-09-15T03:17:53.936Z,14.64
2018-09-15T03:18:29.342Z,14.64
2018-09-15T03:19:04.529Z,14.62
2018-09-15T03:19:39.719Z,14.66
2018-09-15T03:20:14.911Z,14.63
2018-09-15T03:20:50.418Z,14.56
2018-09-15T03:21:25.934Z,14.53
2018-09-15T03:22:01.417Z,14.52
2018-09-15T03:22:36.653Z,14.50
2018-09-15T03:23:11.818Z,14.50
2018-09-15T03:23:47.071Z,14.53
2018-09-15T03:24:22.588Z,14.53
2018-09-15T03:24:57.840Z,14.57
2018-09-15T03:25:33.037Z,14.58
2018-09-15T03:26:08.230Z,14.56
2018-09-15T03:26:43.447Z,14.56
2018-09-15T03:27:19.034Z,14.57
2018-09-15T03:27:54.411Z,14.53
2018-09-15T03:28:29.646Z,14.51
2018-09-15T03:29:04.827Z,14.51
2018-09-15T03:29:40.018Z,14.51
2018-09-15T03:30:15.249Z,14.53
2018-09-15T03:30:50.908Z,14.48
2018-09-15T03:31:26.142Z,14.51
2018-09-15T03:32:01.366Z,14.48
2018-09-15T03:32:36.745Z,14.47
2018-09-15T03:33:11.929Z,14.43
2018-09-15T03:33:47.389Z,14.44
2018-09-15T03:34:22.878Z,14.46
2018-09-15T03:34:58.226Z,14.46
2018-09-15T03:35:33.438Z,14.44
2018-09-15T03:36:08.632Z,14.43
2018-09-15T03:36:43.843Z,14.42
2018-09-15T03:37:19.196Z,14.46
2018-09-15T03:37:54.688Z,14.44
2018-09-15T03:38:30.181Z,14.42
2018-09-15T03:39:07.859Z,14.42
2018-09-15T03:39:43.090Z,14.37
2018-09-15T03:40:18.373Z,14.37
2018-09-15T03:40:53.731Z,14.38
2018-09-15T03:41:29.175Z,14.37
2018-09-15T03:42:04.561Z,14.37
2018-09-15T03:42:39.742Z,14.32
2018-09-15T03:43:15.045Z,14.31
2018-09-15T03:43:50.582Z,14.33
2018-09-15T03:44:26.333Z,14.34
2018-09-15T03:45:01.602Z,14.30
2018-09-15T03:45:36.823Z,14.28
2018-09-15T03:46:12.024Z,14.26
2018-09-15T03:46:47.601Z,14.30
2018-09-15T03:47:22.926Z,14.39
2018-09-15T03:47:58.234Z,14.39
2018-09-15T03:48:33.406Z,14.38
2018-09-15T03:49:08.992Z,14.32
2018-09-15T03:49:44.409Z,14.33
2018-09-15T03:50:19.973Z,14.31
2018-09-15T03:50:55.416Z,14.29
2018-09-15T03:51:30.740Z,14.27
2018-09-15T03:52:05.962Z,14.28
2018-09-15T03:52:41.243Z,14.31
2018-09-15T03:53:16.592Z,14.27
2018-09-15T03:53:51.867Z,14.25
2018-09-15T03:54:27.297Z,14.30
2018-09-15T03:55:02.522Z,14.33
2018-09-15T03:55:37.702Z,14.31
2018-09-15T03:56:12.922Z,14.29
2018-09-15T03:56:48.579Z,14.26
2018-09-15T03:57:23.840Z,14.26
2018-09-15T03:57:59.166Z,14.26
2018-09-15T03:58:34.570Z,14.22
2018-09-15T03:59:09.779Z,14.24
2018-09-15T03:59:44.951Z,14.26
2018-09-15T04:00:20.357Z,14.25
2018-09-15T04:00:55.935Z,14.25
2018-09-15T04:01:31.159Z,14.28
2018-09-15T04:02:06.361Z,14.25
2018-09-15T04:02:41.595Z,14.26
2018-09-15T04:03:17.371Z,14.23
2018-09-15T04:03:52.663Z,14.17
2018-09-15T04:04:27.934Z,14.16
2018-09-15T04:05:03.108Z,14.14
2018-09-15T04:05:38.308Z,14.11
2018-09-15T04:06:13.522Z,14.13
2018-09-15T04:06:48.901Z,14.19
2018-09-15T04:07:24.276Z,14.24
2018-09-15T04:07:59.551Z,14.23
2018-09-15T04:08:34.777Z,14.21
2018-09-15T04:09:11.186Z,14.22
2018-09-15T04:09:46.387Z,14.22
2018-09-15T04:10:21.837Z,14.23
2018-09-15T04:10:57.112Z,14.20
2018-09-15T04:11:32.349Z,14.18
2018-09-15T04:12:07.728Z,14.15
2018-09-15T04:12:43.478Z,14.18
2018-09-15T04:13:19.156Z,14.16
2018-09-15T04:13:54.572Z,14.15
2018-09-15T04:14:29.779Z,14.16
2018-09-15T04:15:05.385Z,14.14
2018-09-15T04:15:40.770Z,14.16
2018-09-15T04:16:15.957Z,14.23
2018-09-15T04:16:51.405Z,14.18
2018-09-15T04:17:26.730Z,14.21
2018-09-15T04:18:02.218Z,14.19
2018-09-15T04:18:37.842Z,14.12
2018-09-15T04:19:13.104Z,14.11
2018-09-15T04:19:48.339Z,14.23
2018-09-15T04:20:23.684Z,14.21
2018-09-15T04:20:58.890Z,14.22
2018-09-15T04:21:34.108Z,14.17
2018-09-15T04:22:09.278Z,14.21
2018-09-15T04:22:43.946Z,14.29
2018-09-15T04:23:19.573Z,14.20
2018-09-15T04:23:54.839Z,14.24
2018-09-15T04:24:30.034Z,14.23
2018-09-15T04:25:05.557Z,14.15
2018-09-15T04:25:40.882Z,14.12
2018-09-15T04:26:15.574Z,14.10
2018-09-15T04:26:50.394Z,14.09
2018-09-15T04:27:25.326Z,14.06
2018-09-15T04:28:00.581Z,14.04
2018-09-15T04:28:35.916Z,14.06
2018-09-15T04:29:11.271Z,14.14
2018-09-15T04:29:46.498Z,14.11
2018-09-15T04:30:21.927Z,14.07
2018-09-15T04:30:57.369Z,14.03
2018-09-15T04:31:32.655Z,14.05
2018-09-15T04:32:07.890Z,14.01
2018-09-15T04:32:43.245Z,14.01
2018-09-15T04:33:18.706Z,14.01
2018-09-15T04:33:54.012Z,14.01
2018-09-15T04:34:29.364Z,14.03
2018-09-15T04:35:04.712Z,14.05
2018-09-15T04:35:40.178Z,14.08
2018-09-15T04:36:15.725Z,14.05
2018-09-15T04:36:51.133Z,14.03
2018-09-15T04:37:26.539Z,14.02
2018-09-15T04:38:01.770Z,14.07
2018-09-15T04:38:36.969Z,14.09
2018-09-15T04:39:12.889Z,14.08
2018-09-15T04:39:48.074Z,14.04
2018-09-15T04:40:23.471Z,14.03
2018-09-15T04:40:58.855Z,13.98
2018-09-15T04:41:41.289Z,13.99
2018-09-15T04:42:16.612Z,14.00
2018-09-15T04:42:52.056Z,13.95
2018-09-15T04:43:27.405Z,13.99
2018-09-15T04:44:02.562Z,14.00
2018-09-15T04:44:37.759Z,13.97
2018-09-15T04:45:12.989Z,13.96
2018-09-15T04:45:48.302Z,13.92
2018-09-15T04:46:23.716Z,13.88
2018-09-15T04:46:59.055Z,13.86
2018-09-15T04:47:34.230Z,13.84
2018-09-15T04:48:09.454Z,13.83
2018-09-15T04:48:44.637Z,13.83
2018-09-15T04:49:19.990Z,13.82
2018-09-15T04:49:55.336Z,13.80
2018-09-15T04:50:30.616Z,13.78
2018-09-15T04:51:06.202Z,13.79
2018-09-15T04:51:41.394Z,13.81
2018-09-15T04:52:16.584Z,13.79
2018-09-15T04:52:51.830Z,13.75
2018-09-15T04:53:27.116Z,13.75
2018-09-15T04:54:02.428Z,13.75
2018-09-15T04:54:37.602Z,13.72
2018-09-15T04:55:12.846Z,13.72
2018-09-15T04:55:48.125Z,13.64
2018-09-15T04:56:23.667Z,13.64
2018-09-15T04:56:58.929Z,13.65
2018-09-15T04:57:34.155Z,13.69
2018-09-15T04:58:09.358Z,13.68
2018-09-15T04:58:44.625Z,13.66
2018-09-15T04:59:20.162Z,13.63
2018-09-15T04:59:55.472Z,13.60
2018-09-15T05:00:30.840Z,13.64
2018-09-15T05:01:06.468Z,13.64
2018-09-15T05:01:41.685Z,13.59
2018-09-15T05:02:16.946Z,13.61
2018-09-15T05:02:52.399Z,13.67
2018-09-15T05:03:27.930Z,13.65
2018-09-15T05:04:03.145Z,13.66
2018-09-15T05:04:38.341Z,13.66
2018-09-15T05:05:13.695Z,13.65
2018-09-15T05:05:49.039Z,13.67
2018-09-15T05:06:24.788Z,13.67
2018-09-15T05:07:00.106Z,13.67
2018-09-15T05:07:35.310Z,13.65
2018-09-15T05:08:10.529Z,13.66
2018-09-15T05:08:45.667Z,13.67
2018-09-15T05:09:21.315Z,13.62
2018-09-15T05:09:56.679Z,13.62
2018-09-15T05:10:32.217Z,13.64
2018-09-15T05:11:07.493Z,13.61
2018-09-15T05:11:42.963Z,13.61
2018-09-15T05:12:18.254Z,13.57
2018-09-15T05:12:53.610Z,13.56
2018-09-15T05:13:28.509Z,13.61
2018-09-15T05:14:03.727Z,13.60
2018-09-15T05:14:38.932Z,13.58
2018-09-15T05:15:13.550Z,13.61
2018-09-15T05:15:48.655Z,13.63
2018-09-15T05:16:24.030Z,13.66
2018-09-15T05:16:59.533Z,13.66
2018-09-15T05:17:34.150Z,13.71
2018-09-15T05:18:09.422Z,13.68
2018-09-15T05:18:44.597Z,13.65
2018-09-15T05:19:20.515Z,13.66
2018-09-15T05:19:55.377Z,13.66
2018-09-15T05:20:30.608Z,13.73
2018-09-15T05:21:06.182Z,13.67
2018-09-15T05:21:41.426Z,13.59
2018-09-15T05:22:16.719Z,13.56
2018-09-15T05:22:52.272Z,13.57
2018-09-15T05:23:27.706Z,13.65
2018-09-15T05:24:02.394Z,13.65
2018-09-15T05:24:37.577Z,13.67
2018-09-15T05:25:12.219Z,13.66
2018-09-15T05:25:47.492Z,13.67
2018-09-15T05:26:22.791Z,13.67
2018-09-15T05:26:58.063Z,13.65
2018-09-15T05:27:33.323Z,13.68
2018-09-15T05:28:08.566Z,13.69
2018-09-15T05:28:43.769Z,13.73
2018-09-15T05:29:19.254Z,13.66
2018-09-15T05:29:54.510Z,13.70
2018-09-15T05:30:29.375Z,13.71
2018-09-15T05:31:04.662Z,13.71
2018-09-15T05:31:39.975Z,13.72
2018-09-15T05:32:15.286Z,13.70
2018-09-15T05:32:50.886Z,13.74
2018-09-15T05:33:26.289Z,13.78
2018-09-15T05:34:01.488Z,13.74
2018-09-15T05:34:36.891Z,13.78
2018-09-15T05:35:12.098Z,13.74
2018-09-15T05:35:47.289Z,13.75
2018-09-15T05:36:22.760Z,13.75
2018-09-15T05:36:57.624Z,13.76
2018-09-15T05:37:32.917Z,13.78
2018-09-15T05:38:07.776Z,13.76
2018-09-15T05:38:43.326Z,13.73
2018-09-15T05:39:18.655Z,13.72
2018-09-15T05:39:54.007Z,13.71
2018-09-15T05:40:29.510Z,13.71
2018-09-15T05:41:04.772Z,13.69
2018-09-15T05:41:40.002Z,13.71
2018-09-15T05:42:15.166Z,13.63
2018-09-15T05:42:50.522Z,13.61
2018-09-15T05:43:25.835Z,13.60
2018-09-15T05:44:01.131Z,13.59
2018-09-15T05:44:36.417Z,13.61
2018-09-15T05:45:11.607Z,13.60
2018-09-15T05:45:46.832Z,13.62
2018-09-15T05:46:22.398Z,13.63
2018-09-15T05:46:57.702Z,13.59
2018-09-15T05:47:32.948Z,13.59
2018-09-15T05:48:08.292Z,13.65
2018-09-15T05:48:43.500Z,13.73
2018-09-15T05:49:19.260Z,13.73
2018-09-15T05:49:54.655Z,13.73
2018-09-15T05:50:30.428Z,13.76
2018-09-15T05:51:05.615Z,13.75
2018-09-15T05:51:40.823Z,13.74
2018-09-15T05:52:16.026Z,13.70
2018-09-15T05:52:51.234Z,13.74
2018-09-15T05:53:26.136Z,13.71
2018-09-15T05:54:01.394Z,13.65
2018-09-15T05:54:36.953Z,13.67
2018-09-15T05:55:12.607Z,13.68
2018-09-15T05:55:47.934Z,13.71
2018-09-15T05:56:23.353Z,13.69
2018-09-15T05:56:59.139Z,13.68
2018-09-15T05:57:34.334Z,13.69
2018-09-15T05:58:09.708Z,13.72
2018-09-15T05:58:44.906Z,13.73
2018-09-15T05:59:20.385Z,13.75
2018-09-15T05:59:55.690Z,13.77
2018-09-15T06:00:31.130Z,13.75
2018-09-15T06:01:07.226Z,13.76
2018-09-15T06:01:42.493Z,13.73
2018-09-15T06:02:17.843Z,13.76
2018-09-15T06:02:53.637Z,13.79
2018-09-15T06:03:28.937Z,13.80
2018-09-15T06:04:04.227Z,13.84
2018-09-15T06:04:39.454Z,13.84
2018-09-15T06:05:14.625Z,13.79
2018-09-15T06:05:50.415Z,13.83
2018-09-15T06:06:25.931Z,13.81
2018-09-15T06:07:01.490Z,13.83
2018-09-15T06:07:36.835Z,13.88
2018-09-15T06:08:12.293Z,13.86
2018-09-15T06:08:47.506Z,13.87
2018-09-15T06:09:22.688Z,13.91
2018-09-15T06:09:58.152Z,13.93
2018-09-15T06:10:33.362Z,13.95
2018-09-15T06:11:08.628Z,13.96
2018-09-15T06:11:43.860Z,13.99
2018-09-15T06:12:19.233Z,13.95
2018-09-15T06:12:54.604Z,13.94
2018-09-15T06:13:30.025Z,13.92
2018-09-15T06:14:05.845Z,13.95
2018-09-15T06:14:41.050Z,13.92
2018-09-15T06:15:16.290Z,13.95
2018-09-15T06:15:52.574Z,14.01
2018-09-15T06:16:27.961Z,14.01
2018-09-15T06:17:03.300Z,14.00
2018-09-15T06:17:38.512Z,13.99
2018-09-15T06:18:13.691Z,13.98
2018-09-15T06:18:49.339Z,13.97
2018-09-15T06:19:25.033Z,13.98
2018-09-15T06:20:00.391Z,13.98
2018-09-15T06:20:35.630Z,14.00
2018-09-15T06:21:10.883Z,14.02
2018-09-15T06:21:46.082Z,14.02
2018-09-15T06:22:21.412Z,14.02
2018-09-15T06:22:56.998Z,14.06
2018-09-15T06:23:32.653Z,14.07
2018-09-15T06:24:07.904Z,14.13
2018-09-15T06:24:42.645Z,14.18
2018-09-15T06:25:18.087Z,14.21
2018-09-15T06:25:53.825Z,14.30
2018-09-15T06:26:29.746Z,14.37
2018-09-15T06:27:05.014Z,14.37
2018-09-15T06:27:40.237Z,14.43
2018-09-15T06:28:15.454Z,14.44
2018-09-15T06:28:50.923Z,14.45
2018-09-15T06:29:26.484Z,14.45
2018-09-15T06:30:01.709Z,14.45
2018-09-15T06:30:36.909Z,14.43
2018-09-15T06:31:12.094Z,14.37
2018-09-15T06:31:47.346Z,14.41
2018-09-15T06:32:22.721Z,14.39
2018-09-15T06:32:58.092Z,14.49
2018-09-15T06:33:33.346Z,14.46
2018-09-15T06:34:08.583Z,14.41
2018-09-15T06:34:43.390Z,14.35
2018-09-15T06:35:19.187Z,14.33
2018-09-15T06:35:54.617Z,14.30
2018-09-15T06:36:30.069Z,14.41
2018-09-15T06:37:05.824Z,14.33
2018-09-15T06:37:41.079Z,14.32
2018-09-15T06:38:16.254Z,14.37
2018-09-15T06:38:51.652Z,14.38
2018-09-15T06:39:27.254Z,14.42
2018-09-15T06:40:02.666Z,14.46
2018-09-15T06:40:38.222Z,14.50
2018-09-15T06:41:13.425Z,14.58
2018-09-15T06:41:48.712Z,14.67
2018-09-15T06:42:24.266Z,14.80
2018-09-15T06:42:59.471Z,14.78
2018-09-15T06:43:34.641Z,14.80
2018-09-15T06:44:09.845Z,14.78
2018-09-15T06:44:45.072Z,14.80
2018-09-15T06:45:21.256Z,14.85
2018-09-15T06:45:57.069Z,14.84
2018-09-15T06:46:32.406Z,14.76
2018-09-15T06:47:07.733Z,14.74
2018-09-15T06:47:42.910Z,14.67
2018-09-15T06:48:18.157Z,14.56
2018-09-15T06:48:53.691Z,14.51
2018-09-15T06:49:29.385Z,14.49
2018-09-15T06:50:04.993Z,14.54
2018-09-15T06:50:40.231Z,14.61
2018-09-15T06:51:15.448Z,14.56
2018-09-15T06:51:50.634Z,14.63
2018-09-15T06:52:25.849Z,14.69
2018-09-15T06:53:01.030Z,14.67
2018-09-15T06:53:36.220Z,14.82
2018-09-15T06:54:11.638Z,14.86
2018-09-15T06:54:46.830Z,14.85
2018-09-15T06:55:22.710Z,14.84
2018-09-15T06:55:57.969Z,14.81
2018-09-15T06:56:33.172Z,14.83
2018-09-15T06:57:08.402Z,14.90
2018-09-15T06:57:43.646Z,14.93
2018-09-15T06:58:19.000Z,14.93
2018-09-15T06:58:54.369Z,15.01
2018-09-15T06:59:30.265Z,15.02
2018-09-15T07:00:05.868Z,15.02
2018-09-15T07:00:41.114Z,15.03
2018-09-15T07:01:16.478Z,15.11
2018-09-15T07:01:52.174Z,15.19
2018-09-15T07:02:27.454Z,15.17
2018-09-15T07:03:02.790Z,15.15
2018-09-15T07:03:37.984Z,15.09
2018-09-15T07:04:13.559Z,15.08
2018-09-15T07:04:49.191Z,15.05
2018-09-15T07:05:24.469Z,15.08
2018-09-15T07:05:59.698Z,15.15
2018-09-15T07:06:34.874Z,15.20
2018-09-15T07:07:10.077Z,15.21
2018-09-15T07:07:45.251Z,15.26
2018-09-15T07:08:21.314Z,15.25
2018-09-15T07:08:56.561Z,15.25
2018-09-15T07:09:31.861Z,15.26
2018-09-15T07:10:07.033Z,15.28
2018-09-15T07:11:45.606Z,15.27
2018-09-15T07:12:21.018Z,15.33
2018-09-15T07:12:56.317Z,15.45
2018-09-15T07:13:31.778Z,15.46
2018-09-15T07:14:07.173Z,15.47
2018-09-15T07:14:42.403Z,15.51
2018-09-15T07:15:17.608Z,15.48
2018-09-15T07:15:53.057Z,15.47
2018-09-15T07:16:28.307Z,15.57
2018-09-15T07:17:03.900Z,15.60
2018-09-15T07:17:39.070Z,15.54
2018-09-15T07:18:14.455Z,15.52
2018-09-15T07:18:49.715Z,15.51
2018-09-15T07:19:25.169Z,15.46
2018-09-15T07:20:00.498Z,15.44
2018-09-15T07:20:35.944Z,15.50
2018-09-15T07:21:10.732Z,15.49
2018-09-15T07:21:45.914Z,15.46
2018-09-15T07:22:21.386Z,15.56
2018-09-15T07:22:56.902Z,15.65
2018-09-15T07:23:32.739Z,15.58
2018-09-15T07:24:08.323Z,15.54
2018-09-15T07:24:43.535Z,15.53
2018-09-15T07:25:19.026Z,15.52
2018-09-15T07:25:54.832Z,15.55
2018-09-15T07:26:31.027Z,15.58
2018-09-15T07:27:06.238Z,15.63
2018-09-15T07:27:41.441Z,15.68
2018-09-15T07:28:16.638Z,15.77
2018-09-15T07:28:52.293Z,15.81
2018-09-15T07:29:27.657Z,15.90
2018-09-15T07:30:03.107Z,15.93
2018-09-15T07:30:38.324Z,16.00
2018-09-15T07:31:13.727Z,15.98
2018-09-15T07:31:49.431Z,15.94
2018-09-15T07:32:25.346Z,15.92
2018-09-15T07:33:00.642Z,15.87
2018-09-15T07:33:35.947Z,15.84
2018-09-15T07:34:11.146Z,15.98
2018-09-15T07:34:46.675Z,15.94
2018-09-15T07:35:22.347Z,16.02
2018-09-15T07:35:57.727Z,16.02
2018-09-15T07:36:32.938Z,15.99